<?xml version="1.0" encoding="UTF-8" standalone="no" ?>
<gpx xmlns="http://www.topografix.com/GPX/1/1" xmlns:xsi="http://www.w3.org/2001/XMLSchema-instance" xsi:schemaLocation="http://www.topografix.com/GPX/1/1 http://www.topografix.com/GPX/1/1/gpx.xsd" version="1.1" creator="VisuGPX - https://www.visugpx.com">
  <metadata>
    <name>Pouchouneix</name>
  </metadata>
  <trk>
    <name><![CDATA[Pouchouneix]]></name>
    <trkseg>
      <trkpt lat="45.09115" lon="0.76589">
        <ele>246</ele>
        <time>2021-01-15T11:05:28+01:00</time>
      </trkpt>
      <trkpt lat="45.09188" lon="0.76276">
        <ele>243</ele>
        <time>2021-01-15T11:05:33+01:00</time>
      </trkpt>
      <trkpt lat="45.09188" lon="0.76237">
        <ele>242</ele>
        <time>2021-01-15T11:05:38+01:00</time>
      </trkpt>
      <trkpt lat="45.09136" lon="0.75928">
        <ele>229</ele>
        <time>2021-01-15T11:05:43+01:00</time>
      </trkpt>
      <trkpt lat="45.09003" lon="0.75726">
        <ele>221</ele>
        <time>2021-01-15T11:05:48+01:00</time>
      </trkpt>
      <trkpt lat="45.09045" lon="0.75679">
        <ele>221</ele>
        <time>2021-01-15T11:05:53+01:00</time>
      </trkpt>
      <trkpt lat="45.08961" lon="0.75503">
        <ele>226</ele>
        <time>2021-01-15T11:05:58+01:00</time>
      </trkpt>
      <trkpt lat="45.08818" lon="0.75366">
        <ele>233</ele>
        <time>2021-01-15T11:06:03+01:00</time>
      </trkpt>
      <trkpt lat="45.08676" lon="0.75306">
        <ele>243</ele>
        <time>2021-01-15T11:06:08+01:00</time>
      </trkpt>
      <trkpt lat="45.08546" lon="0.75314">
        <ele>243</ele>
        <time>2021-01-15T11:06:13+01:00</time>
      </trkpt>
      <trkpt lat="45.08461" lon="0.7519">
        <ele>243</ele>
        <time>2021-01-15T11:06:18+01:00</time>
      </trkpt>
      <trkpt lat="45.08324" lon="0.75276">
        <ele>245</ele>
        <time>2021-01-15T11:06:23+01:00</time>
      </trkpt>
      <trkpt lat="45.08091" lon="0.75576">
        <ele>234</ele>
        <time>2021-01-15T11:06:28+01:00</time>
      </trkpt>
      <trkpt lat="45.07952" lon="0.75829">
        <ele>226</ele>
        <time>2021-01-15T11:06:33+01:00</time>
      </trkpt>
      <trkpt lat="45.07712" lon="0.75945">
        <ele>216</ele>
        <time>2021-01-15T11:06:38+01:00</time>
      </trkpt>
      <trkpt lat="45.07561" lon="0.75954">
        <ele>210</ele>
        <time>2021-01-15T11:06:43+01:00</time>
      </trkpt>
      <trkpt lat="45.07442" lon="0.76319">
        <ele>191</ele>
        <time>2021-01-15T11:06:48+01:00</time>
      </trkpt>
      <trkpt lat="45.07624" lon="0.76546">
        <ele>198</ele>
        <time>2021-01-15T11:06:53+01:00</time>
      </trkpt>
      <trkpt lat="45.07564" lon="0.76628">
        <ele>194</ele>
        <time>2021-01-15T11:06:58+01:00</time>
      </trkpt>
      <trkpt lat="45.08097" lon="0.76941">
        <ele>223</ele>
        <time>2021-01-15T11:07:03+01:00</time>
      </trkpt>
      <trkpt lat="45.08403" lon="0.77134">
        <ele>241</ele>
        <time>2021-01-15T11:07:08+01:00</time>
      </trkpt>
      <trkpt lat="45.08552" lon="0.77147">
        <ele>242</ele>
        <time>2021-01-15T11:07:13+01:00</time>
      </trkpt>
      <trkpt lat="45.08903" lon="0.7734">
        <ele>249</ele>
        <time>2021-01-15T11:07:18+01:00</time>
      </trkpt>
      <trkpt lat="45.0897" lon="0.77233">
        <ele>246</ele>
        <time>2021-01-15T11:07:23+01:00</time>
      </trkpt>
      <trkpt lat="45.08955" lon="0.7698">
        <ele>242</ele>
        <time>2021-01-15T11:07:28+01:00</time>
      </trkpt>
      <trkpt lat="45.08961" lon="0.76915">
        <ele>241</ele>
        <time>2021-01-15T11:07:33+01:00</time>
      </trkpt>
      <trkpt lat="45.09027" lon="0.76855">
        <ele>243</ele>
        <time>2021-01-15T11:07:38+01:00</time>
      </trkpt>
      <trkpt lat="45.09124" lon="0.76581">
        <ele>246</ele>
        <time>2021-01-15T11:07:43+01:00</time>
      </trkpt>
    </trkseg>
  </trk>
</gpx>